Terminal Aerodrome Forecast
Issued by NWS

Home | Current Version | Previous Version | Graphics & Text | Print | Product List | Glossary On
Versions: 1 2 3 4 5 6 7 8 9 10 11 12 13 14 15 16
000
FTUS43 KGRB 141100
TAFCWA
TAF
KCWA 141120Z 1412/1512 19009KT P6SM OVC060
     FM141400 21009KT P6SM SCT060 BKN090
     FM141800 23012G18KT P6SM FEW060 SCT090
     FM150000 25006KT P6SM FEW045 BKN140
     FM150600 28003KT P6SM VCSH BKN070=

USA.gov is the U.S. government's official web portal to all federal, state and local government web resources and services.